sensor_id;sensor_type;location;lat;lon;timestamp;P1;durP1;ratioP1;P2;durP2;ratioP2
51184;SDS011;37248;59.350;18.050;2022-12-01T00:02:05;6.27;;;2.90;;
51184;SDS011;37248;59.350;18.050;2022-12-01T00:04:30;7.63;;;3.10;;
51184;SDS011;37248;59.350;18.050;2022-12-01T00:06:55;4.97;;;2.80;;
51184;SDS011;37248;59.350;18.050;2022-12-01T00:09:20;5.87;;;2.70;;
51184;SDS011;37248;59.350;18.050;2022-12-01T00:12:04;4.88;;;2.58;;
51184;SDS011;37248;59.350;18.050;2022-12-01T00:14:30;4.87;;;2.77;;
51184;SDS011;37248;59.350;18.050;2022-12-01T00:16:55;6.57;;;2.90;;
51184;SDS011;37248;59.350;18.050;2022-12-01T00:19:23;8.23;;;2.93;;
51184;SDS011;37248;59.350;18.050;2022-12-01T00:21:48;5.95;;;2.83;;
51184;SDS011;37248;59.350;18.050;2022-12-01T00:24:13;5.03;;;2.87;;
51184;SDS011;37248;59.350;18.050;2022-12-01T00:26:39;6.60;;;2.73;;
51184;SDS011;37248;59.350;18.050;2022-12-01T00:29:04;5.17;;;2.97;;
51184;SDS011;37248;59.350;18.050;2022-12-01T00:31:29;5.87;;;2.57;;
51184;SDS011;37248;59.350;18.050;2022-12-01T00:33:54;5.27;;;2.83;;
51184;SDS011;37248;59.350;18.050;2022-12-01T00:36:20;4.80;;;3.03;;
51184;SDS011;37248;59.350;18.050;2022-12-01T00:38:46;6.82;;;2.30;;
51184;SDS011;37248;59.350;18.050;2022-12-01T00:41:11;5.03;;;2.43;;
51184;SDS011;37248;59.350;18.050;2022-12-01T00:43:36;7.28;;;2.50;;
51184;SDS011;37248;59.350;18.050;2022-12-01T00:46:01;4.30;;;2.60;;
51184;SDS011;37248;59.350;18.050;2022-12-01T00:48:27;4.65;;;2.60;;
51184;SDS011;37248;59.350;18.050;2022-12-01T00:50:52;4.27;;;2.70;;
51184;SDS011;37248;59.350;18.050;2022-12-01T00:53:18;3.47;;;2.53;;
51184;SDS011;37248;59.350;18.050;2022-12-01T00:55:43;3.20;;;2.37;;
51184;SDS011;37248;59.350;18.050;2022-12-01T00:58:08;4.53;;;2.40;;
51184;SDS011;37248;59.350;18.050;2022-12-01T01:00:34;5.43;;;2.50;;
51184;SDS011;37248;59.350;18.050;2022-12-01T01:03:02;4.38;;;2.80;;
51184;SDS011;37248;59.350;18.050;2022-12-01T01:05:27;4.53;;;2.30;;
51184;SDS011;37248;59.350;18.050;2022-12-01T01:07:53;5.27;;;2.73;;
51184;SDS011;37248;59.350;18.050;2022-12-01T01:10:18;6.67;;;2.90;;
51184;SDS011;37248;59.350;18.050;2022-12-01T01:12:43;5.37;;;2.43;;
51184;SDS011;37248;59.350;18.050;2022-12-01T01:15:09;3.90;;;2.40;;
51184;SDS011;37248;59.350;18.050;2022-12-01T01:17:34;4.03;;;2.50;;
51184;SDS011;37248;59.350;18.050;2022-12-01T01:19:59;4.37;;;2.50;;
51184;SDS011;37248;59.350;18.050;2022-12-01T01:22:24;2.83;;;2.10;;
51184;SDS011;37248;59.350;18.050;2022-12-01T01:24:50;3.10;;;2.20;;
51184;SDS011;37248;59.350;18.050;2022-12-01T01:27:15;5.10;;;2.50;;
51184;SDS011;37248;59.350;18.050;2022-12-01T01:29:40;4.90;;;2.43;;
51184;SDS011;37248;59.350;18.050;2022-12-01T01:32:06;3.43;;;1.87;;
51184;SDS011;37248;59.350;18.050;2022-12-01T01:34:31;2.77;;;2.07;;
51184;SDS011;37248;59.350;18.050;2022-12-01T01:36:57;4.17;;;2.30;;
51184;SDS011;37248;59.350;18.050;2022-12-01T01:39:22;3.33;;;2.20;;
51184;SDS011;37248;59.350;18.050;2022-12-01T01:41:47;4.33;;;2.30;;
51184;SDS011;37248;59.350;18.050;2022-12-01T01:46:56;3.92;;;2.20;;
51184;SDS011;37248;59.350;18.050;2022-12-01T01:49:22;2.33;;;1.77;;
51184;SDS011;37248;59.350;18.050;2022-12-01T01:51:48;3.10;;;2.10;;
51184;SDS011;37248;59.350;18.050;2022-12-01T01:54:21;3.47;;;1.80;;
51184;SDS011;37248;59.350;18.050;2022-12-01T01:56:48;2.30;;;1.70;;
51184;SDS011;37248;59.350;18.050;2022-12-01T01:59:15;2.72;;;2.10;;
51184;SDS011;37248;59.350;18.050;2022-12-01T02:01:42;3.55;;;2.08;;
51184;SDS011;37248;59.350;18.050;2022-12-01T02:04:08;3.85;;;2.00;;
51184;SDS011;37248;59.350;18.050;2022-12-01T02:06:33;3.63;;;1.80;;
51184;SDS011;37248;59.350;18.050;2022-12-01T02:08:58;4.30;;;1.80;;
51184;SDS011;37248;59.350;18.050;2022-12-01T02:11:32;4.53;;;2.23;;
51184;SDS011;37248;59.350;18.050;2022-12-01T02:19:07;3.90;;;1.80;;
51184;SDS011;37248;59.350;18.050;2022-12-01T02:21:43;2.22;;;1.60;;
51184;SDS011;37248;59.350;18.050;2022-12-01T02:45:00;4.57;;;1.80;;
51184;SDS011;37248;59.350;18.050;2022-12-01T02:47:27;2.73;;;1.73;;
51184;SDS011;37248;59.350;18.050;2022-12-01T02:49:53;5.30;;;1.80;;
51184;SDS011;37248;59.350;18.050;2022-12-01T02:52:19;3.20;;;1.87;;
51184;SDS011;37248;59.350;18.050;2022-12-01T02:54:47;3.75;;;1.60;;
51184;SDS011;37248;59.350;18.050;2022-12-01T02:57:13;3.58;;;1.65;;
51184;SDS011;37248;59.350;18.050;2022-12-01T02:59:43;2.78;;;1.60;;
51184;SDS011;37248;59.350;18.050;2022-12-01T03:04:59;2.95;;;1.70;;
51184;SDS011;37248;59.350;18.050;2022-12-01T03:20:46;2.90;;;1.50;;
51184;SDS011;37248;59.350;18.050;2022-12-01T03:23:16;2.70;;;1.70;;
51184;SDS011;37248;59.350;18.050;2022-12-01T03:25:44;2.08;;;1.60;;
51184;SDS011;37248;59.350;18.050;2022-12-01T03:28:11;2.65;;;1.30;;
51184;SDS011;37248;59.350;18.050;2022-12-01T03:30:37;1.97;;;1.40;;
51184;SDS011;37248;59.350;18.050;2022-12-01T03:33:04;2.20;;;1.50;;
51184;SDS011;37248;59.350;18.050;2022-12-01T03:35:38;3.17;;;1.50;;
51184;SDS011;37248;59.350;18.050;2022-12-01T03:38:08;4.25;;;1.50;;
51184;SDS011;37248;59.350;18.050;2022-12-01T03:40:34;2.25;;;1.33;;
51184;SDS011;37248;59.350;18.050;2022-12-01T03:43:08;2.47;;;1.47;;
51184;SDS011;37248;59.350;18.050;2022-12-01T03:45:44;4.32;;;1.60;;
51184;SDS011;37248;59.350;18.050;2022-12-01T03:48:11;3.25;;;1.60;;
51184;SDS011;37248;59.350;18.050;2022-12-01T03:50:49;4.85;;;1.50;;
51184;SDS011;37248;59.350;18.050;2022-12-01T03:53:17;10.20;;;2.72;;
51184;SDS011;37248;59.350;18.050;2022-12-01T03:55:43;12.77;;;2.10;;
51184;SDS011;37248;59.350;18.050;2022-12-01T04:00:36;10.43;;;1.80;;
51184;SDS011;37248;59.350;18.050;2022-12-01T04:03:01;9.43;;;1.70;;
51184;SDS011;37248;59.350;18.050;2022-12-01T04:05:28;4.50;;;1.95;;
51184;SDS011;37248;59.350;18.050;2022-12-01T04:07:53;10.32;;;1.98;;
51184;SDS011;37248;59.350;18.050;2022-12-01T04:10:19;6.72;;;1.80;;
51184;SDS011;37248;59.350;18.050;2022-12-01T04:12:44;5.18;;;1.73;;
51184;SDS011;37248;59.350;18.050;2022-12-01T04:15:10;3.63;;;1.60;;
51184;SDS011;37248;59.350;18.050;2022-12-01T04:17:36;5.32;;;1.73;;
51184;SDS011;37248;59.350;18.050;2022-12-01T04:20:02;4.10;;;1.40;;
51184;SDS011;37248;59.350;18.050;2022-12-01T04:22:30;3.70;;;1.35;;
51184;SDS011;37248;59.350;18.050;2022-12-01T04:24:55;4.25;;;1.40;;
51184;SDS011;37248;59.350;18.050;2022-12-01T04:27:20;3.43;;;1.33;;
51184;SDS011;37248;59.350;18.050;2022-12-01T04:29:46;4.20;;;1.33;;
51184;SDS011;37248;59.350;18.050;2022-12-01T04:32:11;4.23;;;1.37;;
51184;SDS011;37248;59.350;18.050;2022-12-01T04:34:37;5.60;;;1.58;;
51184;SDS011;37248;59.350;18.050;2022-12-01T04:37:02;6.50;;;1.30;;
51184;SDS011;37248;59.350;18.050;2022-12-01T04:39:28;5.60;;;1.40;;
51184;SDS011;37248;59.350;18.050;2022-12-01T04:41:53;4.40;;;1.47;;
51184;SDS011;37248;59.350;18.050;2022-12-01T04:44:18;3.00;;;1.40;;
51184;SDS011;37248;59.350;18.050;2022-12-01T04:46:44;3.77;;;1.40;;
51184;SDS011;37248;59.350;18.050;2022-12-01T04:49:09;2.67;;;1.30;;
51184;SDS011;37248;59.350;18.050;2022-12-01T04:51:34;5.70;;;1.60;;
51184;SDS011;37248;59.350;18.050;2022-12-01T04:54:00;5.10;;;1.40;;
51184;SDS011;37248;59.350;18.050;2022-12-01T04:56:25;3.25;;;1.10;;
51184;SDS011;37248;59.350;18.050;2022-12-01T04:58:51;5.50;;;1.40;;
51184;SDS011;37248;59.350;18.050;2022-12-01T05:01:16;4.97;;;1.20;;
51184;SDS011;37248;59.350;18.050;2022-12-01T05:03:43;4.00;;;1.35;;
51184;SDS011;37248;59.350;18.050;2022-12-01T05:06:12;7.18;;;1.50;;
51184;SDS011;37248;59.350;18.050;2022-12-01T05:08:38;3.42;;;1.25;;
51184;SDS011;37248;59.350;18.050;2022-12-01T05:11:03;2.20;;;1.20;;
51184;SDS011;37248;59.350;18.050;2022-12-01T05:13:31;3.80;;;1.13;;
51184;SDS011;37248;59.350;18.050;2022-12-01T05:16:03;3.53;;;1.38;;
51184;SDS011;37248;59.350;18.050;2022-12-01T05:18:29;4.50;;;1.20;;
51184;SDS011;37248;59.350;18.050;2022-12-01T05:20:54;5.17;;;1.20;;
51184;SDS011;37248;59.350;18.050;2022-12-01T05:23:23;5.53;;;1.20;;
51184;SDS011;37248;59.350;18.050;2022-12-01T05:25:48;5.15;;;1.67;;
51184;SDS011;37248;59.350;18.050;2022-12-01T05:28:13;3.70;;;1.33;;
51184;SDS011;37248;59.350;18.050;2022-12-01T05:30:38;5.50;;;1.40;;
51184;SDS011;37248;59.350;18.050;2022-12-01T05:33:04;4.18;;;1.30;;
51184;SDS011;37248;59.350;18.050;2022-12-01T05:35:31;8.83;;;1.60;;
51184;SDS011;37248;59.350;18.050;2022-12-01T05:37:56;6.57;;;1.58;;
51184;SDS011;37248;59.350;18.050;2022-12-01T05:40:22;8.03;;;1.70;;
51184;SDS011;37248;59.350;18.050;2022-12-01T05:42:47;8.98;;;1.90;;
51184;SDS011;37248;59.350;18.050;2022-12-01T05:45:12;13.03;;;1.97;;
51184;SDS011;37248;59.350;18.050;2022-12-01T05:47:37;15.30;;;1.93;;
51184;SDS011;37248;59.350;18.050;2022-12-01T05:50:03;4.40;;;1.23;;
51184;SDS011;37248;59.350;18.050;2022-12-01T05:52:28;5.88;;;1.40;;
51184;SDS011;37248;59.350;18.050;2022-12-01T05:54:53;4.37;;;1.30;;
51184;SDS011;37248;59.350;18.050;2022-12-01T05:57:19;6.07;;;1.40;;
51184;SDS011;37248;59.350;18.050;2022-12-01T05:59:44;5.10;;;1.58;;
51184;SDS011;37248;59.350;18.050;2022-12-01T06:02:09;15.73;;;2.20;;
51184;SDS011;37248;59.350;18.050;2022-12-01T06:04:35;9.90;;;2.08;;
51184;SDS011;37248;59.350;18.050;2022-12-01T06:07:00;4.10;;;1.60;;
51184;SDS011;37248;59.350;18.050;2022-12-01T06:09:25;3.03;;;1.30;;
51184;SDS011;37248;59.350;18.050;2022-12-01T06:11:50;5.87;;;1.53;;
51184;SDS011;37248;59.350;18.050;2022-12-01T06:14:19;4.22;;;1.40;;
51184;SDS011;37248;59.350;18.050;2022-12-01T06:16:44;4.22;;;1.60;;
51184;SDS011;37248;59.350;18.050;2022-12-01T06:19:10;8.40;;;1.80;;
51184;SDS011;37248;59.350;18.050;2022-12-01T06:21:35;5.85;;;1.70;;
51184;SDS011;37248;59.350;18.050;2022-12-01T06:24:00;6.50;;;1.73;;
51184;SDS011;37248;59.350;18.050;2022-12-01T06:26:25;6.30;;;1.63;;
51184;SDS011;37248;59.350;18.050;2022-12-01T06:28:51;10.10;;;1.50;;
51184;SDS011;37248;59.350;18.050;2022-12-01T06:31:16;5.90;;;1.90;;
51184;SDS011;37248;59.350;18.050;2022-12-01T06:33:41;4.47;;;1.60;;
51184;SDS011;37248;59.350;18.050;2022-12-01T06:36:06;5.60;;;1.60;;
51184;SDS011;37248;59.350;18.050;2022-12-01T06:38:33;30.03;;;3.00;;
51184;SDS011;37248;59.350;18.050;2022-12-01T06:40:58;19.40;;;2.60;;
51184;SDS011;37248;59.350;18.050;2022-12-01T06:43:23;13.03;;;2.23;;
51184;SDS011;37248;59.350;18.050;2022-12-01T06:45:49;10.03;;;1.70;;
51184;SDS011;37248;59.350;18.050;2022-12-01T06:48:14;6.80;;;1.67;;
51184;SDS011;37248;59.350;18.050;2022-12-01T06:50:40;10.03;;;1.90;;
51184;SDS011;37248;59.350;18.050;2022-12-01T06:53:05;11.37;;;1.80;;
51184;SDS011;37248;59.350;18.050;2022-12-01T06:55:30;7.80;;;1.50;;
51184;SDS011;37248;59.350;18.050;2022-12-01T06:57:59;12.77;;;2.00;;
51184;SDS011;37248;59.350;18.050;2022-12-01T07:00:24;6.72;;;1.60;;
51184;SDS011;37248;59.350;18.050;2022-12-01T07:02:50;8.77;;;1.50;;
51184;SDS011;37248;59.350;18.050;2022-12-01T07:05:15;6.50;;;1.57;;
51184;SDS011;37248;59.350;18.050;2022-12-01T07:07:40;6.27;;;1.80;;
51184;SDS011;37248;59.350;18.050;2022-12-01T07:10:06;10.17;;;1.60;;
51184;SDS011;37248;59.350;18.050;2022-12-01T07:12:32;6.10;;;1.60;;
51184;SDS011;37248;59.350;18.050;2022-12-01T07:14:57;7.78;;;2.00;;
51184;SDS011;37248;59.350;18.050;2022-12-01T07:17:23;7.73;;;1.90;;
51184;SDS011;37248;59.350;18.050;2022-12-01T07:19:48;4.70;;;1.60;;
51184;SDS011;37248;59.350;18.050;2022-12-01T07:22:14;5.00;;;1.70;;
51184;SDS011;37248;59.350;18.050;2022-12-01T07:24:39;7.95;;;1.85;;
51184;SDS011;37248;59.350;18.050;2022-12-01T07:27:05;5.00;;;1.60;;
51184;SDS011;37248;59.350;18.050;2022-12-01T07:29:30;4.50;;;1.70;;
51184;SDS011;37248;59.350;18.050;2022-12-01T07:31:55;3.87;;;1.67;;
51184;SDS011;37248;59.350;18.050;2022-12-01T07:34:20;5.97;;;1.60;;
51184;SDS011;37248;59.350;18.050;2022-12-01T07:36:46;4.00;;;1.80;;
51184;SDS011;37248;59.350;18.050;2022-12-01T07:39:11;6.67;;;1.80;;
51184;SDS011;37248;59.350;18.050;2022-12-01T07:41:36;7.10;;;1.50;;
51184;SDS011;37248;59.350;18.050;2022-12-01T07:44:01;10.33;;;1.83;;
51184;SDS011;37248;59.350;18.050;2022-12-01T07:46:27;4.90;;;1.53;;
51184;SDS011;37248;59.350;18.050;2022-12-01T07:48:53;6.60;;;1.60;;
51184;SDS011;37248;59.350;18.050;2022-12-01T07:51:18;6.75;;;1.67;;
51184;SDS011;37248;59.350;18.050;2022-12-01T07:53:45;4.35;;;1.70;;
51184;SDS011;37248;59.350;18.050;2022-12-01T07:56:10;4.18;;;1.50;;
51184;SDS011;37248;59.350;18.050;2022-12-01T07:58:36;3.70;;;1.37;;
51184;SDS011;37248;59.350;18.050;2022-12-01T08:01:08;3.80;;;1.60;;
51184;SDS011;37248;59.350;18.050;2022-12-01T08:03:34;2.70;;;1.40;;
51184;SDS011;37248;59.350;18.050;2022-12-01T08:05:59;4.95;;;1.50;;
51184;SDS011;37248;59.350;18.050;2022-12-01T08:08:25;2.63;;;1.33;;
51184;SDS011;37248;59.350;18.050;2022-12-01T08:10:51;2.97;;;1.37;;
51184;SDS011;37248;59.350;18.050;2022-12-01T08:13:16;4.13;;;1.37;;
51184;SDS011;37248;59.350;18.050;2022-12-01T08:15:41;4.90;;;1.40;;
51184;SDS011;37248;59.350;18.050;2022-12-01T08:18:06;4.57;;;1.50;;
51184;SDS011;37248;59.350;18.050;2022-12-01T08:20:32;4.50;;;1.50;;
51184;SDS011;37248;59.350;18.050;2022-12-01T08:23:00;23.07;;;2.50;;
51184;SDS011;37248;59.350;18.050;2022-12-01T08:25:25;24.15;;;2.05;;
51184;SDS011;37248;59.350;18.050;2022-12-01T08:27:51;22.93;;;2.40;;
51184;SDS011;37248;59.350;18.050;2022-12-01T08:30:16;45.00;;;3.67;;
51184;SDS011;37248;59.350;18.050;2022-12-01T08:32:41;34.17;;;2.80;;
51184;SDS011;37248;59.350;18.050;2022-12-01T08:35:06;39.13;;;3.57;;
51184;SDS011;37248;59.350;18.050;2022-12-01T08:37:32;33.50;;;3.58;;
51184;SDS011;37248;59.350;18.050;2022-12-01T08:39:57;33.13;;;3.97;;
51184;SDS011;37248;59.350;18.050;2022-12-01T08:42:22;31.70;;;3.63;;
51184;SDS011;37248;59.350;18.050;2022-12-01T08:44:48;27.27;;;3.17;;
51184;SDS011;37248;59.350;18.050;2022-12-01T08:47:13;26.40;;;3.42;;
51184;SDS011;37248;59.350;18.050;2022-12-01T08:49:38;25.37;;;3.10;;
51184;SDS011;37248;59.350;18.050;2022-12-01T08:52:03;18.67;;;3.13;;
51184;SDS011;37248;59.350;18.050;2022-12-01T08:54:29;22.43;;;3.03;;
51184;SDS011;37248;59.350;18.050;2022-12-01T08:56:54;22.70;;;3.13;;
51184;SDS011;37248;59.350;18.050;2022-12-01T08:59:19;16.07;;;3.30;;
51184;SDS011;37248;59.350;18.050;2022-12-01T09:01:44;20.07;;;3.50;;
51184;SDS011;37248;59.350;18.050;2022-12-01T09:04:19;15.18;;;3.03;;
51184;SDS011;37248;59.350;18.050;2022-12-01T09:06:45;12.35;;;2.65;;
51184;SDS011;37248;59.350;18.050;2022-12-01T09:09:12;16.48;;;2.60;;
51184;SDS011;37248;59.350;18.050;2022-12-01T09:11:38;20.50;;;2.93;;
51184;SDS011;37248;59.350;18.050;2022-12-01T09:14:04;10.90;;;2.25;;
51184;SDS011;37248;59.350;18.050;2022-12-01T09:16:29;12.57;;;2.70;;
51184;SDS011;37248;59.350;18.050;2022-12-01T09:18:54;12.45;;;2.13;;
51184;SDS011;37248;59.350;18.050;2022-12-01T09:21:21;10.32;;;2.35;;
51184;SDS011;37248;59.350;18.050;2022-12-01T09:23:47;11.18;;;2.47;;
51184;SDS011;37248;59.350;18.050;2022-12-01T09:26:13;22.65;;;2.83;;
51184;SDS011;37248;59.350;18.050;2022-12-01T09:28:42;10.18;;;2.42;;
51184;SDS011;37248;59.350;18.050;2022-12-01T09:31:08;8.05;;;2.05;;
51184;SDS011;37248;59.350;18.050;2022-12-01T09:33:33;11.77;;;2.58;;
51184;SDS011;37248;59.350;18.050;2022-12-01T09:35:59;10.60;;;2.40;;
51184;SDS011;37248;59.350;18.050;2022-12-01T09:38:25;10.95;;;2.30;;
51184;SDS011;37248;59.350;18.050;2022-12-01T09:40:50;5.90;;;2.27;;
51184;SDS011;37248;59.350;18.050;2022-12-01T09:43:19;10.07;;;2.33;;
51184;SDS011;37248;59.350;18.050;2022-12-01T09:45:46;8.82;;;2.33;;
51184;SDS011;37248;59.350;18.050;2022-12-01T09:48:46;12.20;;;2.28;;
51184;SDS011;37248;59.350;18.050;2022-12-01T09:51:16;6.47;;;1.73;;
51184;SDS011;37248;59.350;18.050;2022-12-01T09:53:42;8.55;;;2.03;;
51184;SDS011;37248;59.350;18.050;2022-12-01T09:56:42;6.93;;;2.00;;
51184;SDS011;37248;59.350;18.050;2022-12-01T09:59:00;8.18;;;1.80;;
51184;SDS011;37248;59.350;18.050;2022-12-01T10:01:30;5.18;;;1.70;;
51184;SDS011;37248;59.350;18.050;2022-12-01T10:03:56;5.18;;;1.67;;
51184;SDS011;37248;59.350;18.050;2022-12-01T10:06:47;9.20;;;1.85;;
51184;SDS011;37248;59.350;18.050;2022-12-01T10:11:57;5.05;;;1.95;;
51184;SDS011;37248;59.350;18.050;2022-12-01T10:14:26;4.50;;;1.70;;
51184;SDS011;37248;59.350;18.050;2022-12-01T10:17:08;3.53;;;1.60;;
51184;SDS011;37248;59.350;18.050;2022-12-01T10:22:52;3.35;;;1.55;;
51184;SDS011;37248;59.350;18.050;2022-12-01T10:24:58;3.97;;;1.70;;
51184;SDS011;37248;59.350;18.050;2022-12-01T10:30:21;4.30;;;1.50;;
51184;SDS011;37248;59.350;18.050;2022-12-01T10:35:14;3.40;;;1.57;;
51184;SDS011;37248;59.350;18.050;2022-12-01T10:37:40;4.05;;;1.60;;
51184;SDS011;37248;59.350;18.050;2022-12-01T10:40:10;2.50;;;1.50;;
51184;SDS011;37248;59.350;18.050;2022-12-01T10:42:46;4.20;;;1.50;;
51184;SDS011;37248;59.350;18.050;2022-12-01T10:45:17;4.47;;;1.65;;
51184;SDS011;37248;59.350;18.050;2022-12-01T10:50:51;2.58;;;1.40;;
51184;SDS011;37248;59.350;18.050;2022-12-01T10:55:48;3.53;;;1.52;;
51184;SDS011;37248;59.350;18.050;2022-12-01T10:58:16;2.22;;;1.60;;
51184;SDS011;37248;59.350;18.050;2022-12-01T11:00:42;3.75;;;1.30;;
51184;SDS011;37248;59.350;18.050;2022-12-01T11:03:21;5.88;;;1.02;;
51184;SDS011;37248;59.350;18.050;2022-12-01T11:05:49;3.58;;;1.20;;
51184;SDS011;37248;59.350;18.050;2022-12-01T11:08:20;4.05;;;1.30;;
51184;SDS011;37248;59.350;18.050;2022-12-01T11:10:47;2.38;;;1.30;;
51184;SDS011;37248;59.350;18.050;2022-12-01T11:13:20;2.20;;;1.30;;
51184;SDS011;37248;59.350;18.050;2022-12-01T11:16:03;3.50;;;1.20;;
51184;SDS011;37248;59.350;18.050;2022-12-01T11:18:35;3.03;;;1.50;;
51184;SDS011;37248;59.350;18.050;2022-12-01T11:21:05;3.72;;;1.35;;
51184;SDS011;37248;59.350;18.050;2022-12-01T11:23:34;2.17;;;1.15;;
51184;SDS011;37248;59.350;18.050;2022-12-01T11:26:04;2.47;;;1.20;;
51184;SDS011;37248;59.350;18.050;2022-12-01T11:28:30;1.90;;;1.20;;
51184;SDS011;37248;59.350;18.050;2022-12-01T11:30:56;2.50;;;1.48;;
51184;SDS011;37248;59.350;18.050;2022-12-01T11:33:22;3.00;;;1.40;;
51184;SDS011;37248;59.350;18.050;2022-12-01T11:35:47;2.03;;;1.10;;
51184;SDS011;37248;59.350;18.050;2022-12-01T11:38:24;2.53;;;1.30;;
51184;SDS011;37248;59.350;18.050;2022-12-01T11:40:54;2.67;;;1.27;;
51184;SDS011;37248;59.350;18.050;2022-12-01T11:43:22;1.95;;;1.10;;
51184;SDS011;37248;59.350;18.050;2022-12-01T11:45:48;2.07;;;1.30;;
51184;SDS011;37248;59.350;18.050;2022-12-01T11:50:58;2.30;;;1.03;;
51184;SDS011;37248;59.350;18.050;2022-12-01T11:53:25;1.83;;;1.10;;
51184;SDS011;37248;59.350;18.050;2022-12-01T11:55:51;1.53;;;1.03;;
51184;SDS011;37248;59.350;18.050;2022-12-01T11:58:16;1.57;;;1.10;;
51184;SDS011;37248;59.350;18.050;2022-12-01T12:00:46;2.40;;;1.40;;
51184;SDS011;37248;59.350;18.050;2022-12-01T12:03:16;2.33;;;1.20;;
51184;SDS011;37248;59.350;18.050;2022-12-01T12:24:04;2.00;;;1.10;;
51184;SDS011;37248;59.350;18.050;2022-12-01T12:29:21;2.28;;;1.20;;
51184;SDS011;37248;59.350;18.050;2022-12-01T12:34:16;1.57;;;1.10;;
51184;SDS011;37248;59.350;18.050;2022-12-01T12:41:43;1.80;;;1.13;;
51184;SDS011;37248;59.350;18.050;2022-12-01T12:49:26;2.07;;;1.20;;
51184;SDS011;37248;59.350;18.050;2022-12-01T12:57:03;2.17;;;1.00;;
51184;SDS011;37248;59.350;18.050;2022-12-01T12:59:41;1.33;;;1.08;;
51184;SDS011;37248;59.350;18.050;2022-12-01T13:02:13;1.10;;;0.82;;
51184;SDS011;37248;59.350;18.050;2022-12-01T13:07:16;1.80;;;1.20;;
51184;SDS011;37248;59.350;18.050;2022-12-01T13:09:50;1.40;;;1.05;;
51184;SDS011;37248;59.350;18.050;2022-12-01T13:14:45;1.47;;;1.10;;
51184;SDS011;37248;59.350;18.050;2022-12-01T13:17:19;1.95;;;1.30;;
51184;SDS011;37248;59.350;18.050;2022-12-01T13:19:46;1.60;;;1.10;;
51184;SDS011;37248;59.350;18.050;2022-12-01T13:22:12;1.80;;;1.08;;
51184;SDS011;37248;59.350;18.050;2022-12-01T13:24:38;1.50;;;1.17;;
51184;SDS011;37248;59.350;18.050;2022-12-01T13:29:31;1.27;;;1.10;;
51184;SDS011;37248;59.350;18.050;2022-12-01T13:31:56;1.70;;;0.90;;
51184;SDS011;37248;59.350;18.050;2022-12-01T13:36:51;1.88;;;1.17;;
51184;SDS011;37248;59.350;18.050;2022-12-01T13:39:20;1.25;;;1.00;;
51184;SDS011;37248;59.350;18.050;2022-12-01T13:41:55;1.73;;;1.02;;
51184;SDS011;37248;59.350;18.050;2022-12-01T13:44:22;4.45;;;1.50;;
51184;SDS011;37248;59.350;18.050;2022-12-01T13:46:50;3.42;;;1.30;;
51184;SDS011;37248;59.350;18.050;2022-12-01T13:57:29;6.28;;;1.30;;
51184;SDS011;37248;59.350;18.050;2022-12-01T14:02:24;5.97;;;1.30;;
51184;SDS011;37248;59.350;18.050;2022-12-01T14:04:49;13.93;;;1.80;;
51184;SDS011;37248;59.350;18.050;2022-12-01T14:07:19;12.90;;;1.80;;
51184;SDS011;37248;59.350;18.050;2022-12-01T14:09:45;39.15;;;3.92;;
51184;SDS011;37248;59.350;18.050;2022-12-01T14:12:27;117.25;;;8.85;;
51184;SDS011;37248;59.350;18.050;2022-12-01T14:14:59;65.67;;;6.17;;
51184;SDS011;37248;59.350;18.050;2022-12-01T14:17:29;55.67;;;6.07;;
51184;SDS011;37248;59.350;18.050;2022-12-01T14:19:54;47.35;;;4.85;;
51184;SDS011;37248;59.350;18.050;2022-12-01T14:25:00;33.95;;;4.38;;
51184;SDS011;37248;59.350;18.050;2022-12-01T14:27:36;40.20;;;4.55;;
51184;SDS011;37248;59.350;18.050;2022-12-01T14:32:46;30.77;;;4.00;;
51184;SDS011;37248;59.350;18.050;2022-12-01T14:35:11;33.07;;;4.20;;
51184;SDS011;37248;59.350;18.050;2022-12-01T14:37:38;20.13;;;3.88;;
51184;SDS011;37248;59.350;18.050;2022-12-01T14:40:12;27.95;;;4.07;;
51184;SDS011;37248;59.350;18.050;2022-12-01T14:42:41;25.05;;;3.72;;
51184;SDS011;37248;59.350;18.050;2022-12-01T14:45:27;19.30;;;3.33;;
51184;SDS011;37248;59.350;18.050;2022-12-01T14:47:59;26.38;;;3.45;;
51184;SDS011;37248;59.350;18.050;2022-12-01T14:50:42;20.27;;;3.10;;
51184;SDS011;37248;59.350;18.050;2022-12-01T14:53:17;18.85;;;3.15;;
51184;SDS011;37248;59.350;18.050;2022-12-01T14:58:21;18.13;;;3.40;;
51184;SDS011;37248;59.350;18.050;2022-12-01T15:00:52;17.33;;;3.30;;
51184;SDS011;37248;59.350;18.050;2022-12-01T15:03:18;14.52;;;2.95;;
51184;SDS011;37248;59.350;18.050;2022-12-01T15:05:44;15.00;;;3.60;;
51184;SDS011;37248;59.350;18.050;2022-12-01T15:08:42;13.35;;;2.85;;
51184;SDS011;37248;59.350;18.050;2022-12-01T15:11:02;13.47;;;3.30;;
51184;SDS011;37248;59.350;18.050;2022-12-01T15:16:00;14.20;;;2.83;;
51184;SDS011;37248;59.350;18.050;2022-12-01T15:18:33;14.30;;;3.20;;
51184;SDS011;37248;59.350;18.050;2022-12-01T15:21:01;13.75;;;3.50;;
51184;SDS011;37248;59.350;18.050;2022-12-01T15:23:27;12.55;;;3.30;;
51184;SDS011;37248;59.350;18.050;2022-12-01T15:25:52;14.37;;;3.10;;
51184;SDS011;37248;59.350;18.050;2022-12-01T15:28:19;11.95;;;3.35;;
51184;SDS011;37248;59.350;18.050;2022-12-01T15:30:46;13.25;;;2.92;;
51184;SDS011;37248;59.350;18.050;2022-12-01T15:33:23;13.80;;;3.00;;
51184;SDS011;37248;59.350;18.050;2022-12-01T15:35:49;8.65;;;2.50;;
51184;SDS011;37248;59.350;18.050;2022-12-01T15:38:16;11.83;;;2.80;;
51184;SDS011;37248;59.350;18.050;2022-12-01T15:40:43;19.10;;;3.00;;
51184;SDS011;37248;59.350;18.050;2022-12-01T15:43:29;11.57;;;2.70;;
51184;SDS011;37248;59.350;18.050;2022-12-01T15:46:00;11.87;;;2.90;;
51184;SDS011;37248;59.350;18.050;2022-12-01T15:48:33;16.60;;;3.03;;
51184;SDS011;37248;59.350;18.050;2022-12-01T15:51:03;10.93;;;2.70;;
51184;SDS011;37248;59.350;18.050;2022-12-01T15:53:32;10.38;;;3.03;;
51184;SDS011;37248;59.350;18.050;2022-12-01T15:55:57;13.13;;;2.60;;
51184;SDS011;37248;59.350;18.050;2022-12-01T15:58:24;13.20;;;2.90;;
51184;SDS011;37248;59.350;18.050;2022-12-01T16:01:01;15.95;;;2.63;;
51184;SDS011;37248;59.350;18.050;2022-12-01T16:03:27;11.00;;;2.33;;
51184;SDS011;37248;59.350;18.050;2022-12-01T16:05:52;14.18;;;2.75;;
51184;SDS011;37248;59.350;18.050;2022-12-01T16:08:19;13.30;;;2.67;;
51184;SDS011;37248;59.350;18.050;2022-12-01T16:10:45;9.38;;;2.35;;
51184;SDS011;37248;59.350;18.050;2022-12-01T16:15:54;11.93;;;2.70;;
51184;SDS011;37248;59.350;18.050;2022-12-01T16:18:25;14.70;;;2.60;;
51184;SDS011;37248;59.350;18.050;2022-12-01T16:20:52;8.98;;;2.35;;
51184;SDS011;37248;59.350;18.050;2022-12-01T16:23:20;14.40;;;2.80;;
51184;SDS011;37248;59.350;18.050;2022-12-01T16:25:47;7.88;;;2.08;;
51184;SDS011;37248;59.350;18.050;2022-12-01T16:28:19;12.85;;;2.50;;
51184;SDS011;37248;59.350;18.050;2022-12-01T16:30:45;11.77;;;2.45;;
51184;SDS011;37248;59.350;18.050;2022-12-01T16:35:39;8.32;;;2.50;;
51184;SDS011;37248;59.350;18.050;2022-12-01T16:38:15;9.97;;;2.27;;
51184;SDS011;37248;59.350;18.050;2022-12-01T16:40:44;14.80;;;2.40;;
51184;SDS011;37248;59.350;18.050;2022-12-01T16:43:11;6.70;;;2.30;;
51184;SDS011;37248;59.350;18.050;2022-12-01T16:45:36;9.53;;;2.10;;
51184;SDS011;37248;59.350;18.050;2022-12-01T16:48:02;9.13;;;2.30;;
51184;SDS011;37248;59.350;18.050;2022-12-01T16:50:27;7.80;;;2.30;;
51184;SDS011;37248;59.350;18.050;2022-12-01T16:52:52;7.63;;;2.17;;
51184;SDS011;37248;59.350;18.050;2022-12-01T16:57:43;7.23;;;2.30;;